KLIC

Limon Municipal Airport

Limon, Colorado, USA
METAR KLIC 140355Z AUTO 36005KT 10SM CLR M03/M06 A3042 RMK AO2 SLP322 T10281061
Observed Flight Rules
Nov-14 @ 03:55 UTC (53 minutes ago) Visual Flight Rules
Wind Visibility Clouds
360° at 5 knots 10 miles
  • Clear skies
Temperatures Readings
Current -3°C / 27°F
Dewpoint -6°C / 21°F
Humidity 80%
Altimeter 30.42" Hg
Pressure 1032.2 hPa
Elevation 1630
METAR KLIC 140355Z AUTO 36005KT 10SM CLR M03/M06 A3042 RMK AO2 SLP322 T10281061
Observed Flight Rules
Nov-14 @ 03:55 UTC
(53 minutes ago)
VFR
Wind Visibility
360° at 5 knots 10 miles
Clouds
  • Clear skies
Temperature Dewpoint
-3°C / 27°F -6°C / 21°F
Humidity Altimeter Pressure
80% 30.42" Hg 1032.2 hPa